Time;durP1;ratioP1;P1;durP2;ratioP2;P2;SDS_P1;SDS_P2;PMS_P1;PMS_P2;Temp;Humidity;BMP_temperature;BMP_pressure;BME280_temperature;BME280_humidity;BME280_pressure;Samples;Min_cycle;Max_cycle;Signal;HPM_P1;HPM_P2
2022/04/19 00:00:19;;;;;;;1.63;1.50;;;;;;;-1.45;65.63;95198.06;1787120;80;21441;-70
2022/04/19 00:02:47;;;;;;;2.73;1.53;;;;;;;-1.39;65.43;95195.16;1786534;80;21011;-70
2022/04/19 00:05:14;;;;;;;2.23;1.57;;;;;;;-1.41;65.59;95195.58;1787026;80;21010;-70
2022/04/19 00:07:41;;;;;;;3.37;2.00;;;;;;;-1.41;65.57;95198.17;1787323;80;20983;-70
2022/04/19 00:10:09;;;;;;;4.70;2.10;;;;;;;-1.41;65.61;95194.29;1795185;80;21053;-71
2022/04/19 00:12:36;;;;;;;3.73;1.80;;;;;;;-1.43;66.60;95189.50;1795517;80;20974;-71
2022/04/19 00:15:04;;;;;;;2.00;1.67;;;;;;;-1.60;67.44;95193.02;1795468;80;21069;-70
2022/04/19 00:17:30;;;;;;;2.40;1.60;;;;;;;-1.72;67.54;95189.29;1795267;80;21445;-71
2022/04/19 00:19:57;;;;;;;2.63;1.70;;;;;;;-1.69;66.77;95182.88;1795207;80;21082;-70
2022/04/19 00:22:24;;;;;;;2.80;1.80;;;;;;;-1.66;66.20;95189.02;1795549;80;20987;-70
2022/04/19 00:24:50;;;;;;;3.27;2.10;;;;;;;-1.65;66.65;95188.16;1795703;80;20995;-71
2022/04/19 00:27:16;;;;;;;2.77;1.77;;;;;;;-1.64;66.50;95183.46;1795351;80;21029;-70
2022/04/19 00:29:43;;;;;;;3.13;1.70;;;;;;;-1.57;66.35;95177.98;1795395;80;20991;-70
2022/04/19 00:32:11;;;;;;;3.33;2.57;;;;;;;-1.63;66.32;95181.31;1795222;80;21498;-70
2022/04/19 00:34:41;;;;;;;2.63;1.67;;;;;;;-1.61;66.30;95178.34;1795281;80;21543;-71
2022/04/19 00:37:08;;;;;;;3.63;2.30;;;;;;;-1.60;65.83;95180.08;1795557;80;21026;-71
2022/04/19 00:39:35;;;;;;;2.90;2.30;;;;;;;-1.70;67.76;95181.15;1795267;80;21046;-70
2022/04/19 00:42:03;;;;;;;4.03;1.83;;;;;;;-1.81;67.89;95179.63;1795489;80;20963;-71
2022/04/19 00:44:30;;;;;;;3.90;2.10;;;;;;;-1.84;67.51;95181.73;1795290;80;21513;-71
2022/04/19 00:46:56;;;;;;;3.07;1.80;;;;;;;-1.79;67.22;95174.05;1795420;80;21033;-71
2022/04/19 00:49:23;;;;;;;3.07;2.10;;;;;;;-1.76;67.55;95180.17;1795127;80;21082;-71
2022/04/19 00:51:52;;;;;;;4.10;2.40;;;;;;;-1.82;67.43;95176.58;1795512;80;21006;-71
2022/04/19 00:54:19;;;;;;;8.50;2.40;;;;;;;-1.96;68.45;95178.45;1795177;80;20995;-71
2022/04/19 00:56:47;;;;;;;4.70;1.97;;;;;;;-2.03;68.57;95182.15;1795411;80;20974;-71
2022/04/19 00:59:14;;;;;;;4.37;1.90;;;;;;;-2.06;68.47;95178.21;1795479;80;21568;-71
2022/04/19 01:01:41;;;;;;;2.77;1.60;;;;;;;-2.11;68.06;95181.11;1795330;80;20967;-70
2022/04/19 01:04:09;;;;;;;2.50;1.90;;;;;;;-2.10;67.74;95177.25;1795462;80;21042;-71
2022/04/19 01:06:35;;;;;;;2.60;1.70;;;;;;;-2.07;67.68;95172.56;1795332;80;21010;-71
2022/04/19 01:09:02;;;;;;;2.57;1.80;;;;;;;-2.07;67.74;95172.56;1791039;80;20999;-70
2022/04/19 01:14:15;;;;;;;4.93;2.30;;;;;;;-2.12;68.81;95171.59;1787027;80;20971;-71
2022/04/19 01:16:42;;;;;;;6.07;2.60;;;;;;;-2.16;69.48;95164.20;1786831;80;21606;-71
2022/04/19 01:19:17;;;;;;;3.20;2.13;;;;;;;-2.19;69.13;95170.17;1754385;80;21003;-71
2022/04/19 01:21:54;;;;;;;4.57;2.10;;;;;;;-2.19;69.37;95171.46;1786963;80;21003;-71
2022/04/19 01:24:25;;;;;;;2.93;1.60;;;;;;;-2.15;68.92;95167.22;1785019;80;21019;-70
2022/04/19 01:26:57;;;;;;;4.63;2.20;;;;;;;-2.21;68.10;95164.08;1786837;80;21520;-71
2022/04/19 01:29:26;;;;;;;1.87;1.30;;;;;;;-2.19;68.15;95166.30;1787077;80;21003;-70
2022/04/19 01:31:54;;;;;;;2.93;1.67;;;;;;;-2.20;67.84;95164.53;1787197;80;20999;-70
2022/04/19 01:34:22;;;;;;;3.40;1.87;;;;;;;-2.30;67.85;95166.87;1787255;80;21011;-70
2022/04/19 01:36:51;;;;;;;2.73;1.70;;;;;;;-2.31;68.26;95169.88;1787011;80;21014;-71
2022/04/19 01:39:18;;;;;;;5.20;1.60;;;;;;;-2.34;67.75;95167.63;1787281;80;20991;-70
2022/04/19 01:41:45;;;;;;;3.13;1.80;;;;;;;-2.46;67.85;95171.67;1787287;80;21500;-70
2022/04/19 01:44:14;;;;;;;1.83;1.53;;;;;;;-2.56;68.33;95178.74;1786817;80;20979;-70
2022/04/19 01:46:40;;;;;;;3.50;1.80;;;;;;;-2.53;68.61;95179.23;1787023;80;21513;-70
2022/04/19 01:49:07;;;;;;;2.67;1.97;;;;;;;-2.53;69.22;95177.95;1787000;80;21089;-70
2022/04/19 01:51:37;;;;;;;6.30;2.00;;;;;;;-2.49;68.99;95165.15;1787231;80;21014;-70
2022/04/19 01:54:05;;;;;;;8.47;2.00;;;;;;;-2.42;69.55;95172.22;1787270;80;21505;-70
2022/04/19 01:56:32;;;;;;;2.53;1.60;;;;;;;-2.47;70.03;95171.23;1787207;80;20963;-70
2022/04/19 01:59:04;;;;;;;2.73;1.50;;;;;;;-2.54;69.51;95173.63;1784336;80;20991;-70
2022/04/19 02:01:49;;;;;;;2.37;1.40;;;;;;;-2.52;69.41;95176.70;1787255;80;21039;-70
2022/04/19 02:04:21;;;;;;;4.70;1.70;;;;;;;-2.43;69.31;95160.11;1787383;80;21014;-70
2022/04/19 02:06:47;;;;;;;4.23;1.70;;;;;;;-2.43;68.91;95163.98;1787270;80;21010;-70
2022/04/19 02:09:14;;;;;;;2.90;1.37;;;;;;;-2.50;69.93;95161.22;1790435;80;21022;-71
2022/04/19 02:11:41;;;;;;;3.43;1.60;;;;;;;-2.53;69.14;95155.56;1795500;80;21335;-70
2022/04/19 02:14:18;;;;;;;3.27;2.80;;;;;;;-2.62;69.76;95152.78;1791683;80;21579;-70
2022/04/19 02:16:45;;;;;;;2.53;1.80;;;;;;;-2.60;70.34;95154.95;1795565;80;21003;-70
2022/04/19 02:19:14;;;;;;;3.03;1.70;;;;;;;-2.70;70.22;95161.59;1795100;80;21018;-71
2022/04/19 02:21:40;;;;;;;4.97;2.33;;;;;;;-2.74;69.91;95150.76;1795485;80;20971;-70
2022/04/19 02:24:07;;;;;;;2.73;1.40;;;;;;;-2.74;69.74;95155.05;1795539;80;21006;-71
2022/04/19 02:26:34;;;;;;;1.33;1.03;;;;;;;-2.70;69.99;95150.41;1795256;80;21006;-71
2022/04/19 02:29:01;;;;;;;6.07;1.43;;;;;;;-2.73;69.33;95152.91;1795812;80;20954;-70
2022/04/19 02:31:29;;;;;;;2.00;1.20;;;;;;;-2.81;69.46;95152.73;1794748;80;20999;-70
2022/04/19 02:33:58;;;;;;;2.53;1.30;;;;;;;-2.80;69.55;95148.00;1795330;80;20998;-70
2022/04/19 02:36:26;;;;;;;1.60;1.20;;;;;;;-2.90;69.63;95150.80;1795442;80;21030;-70
2022/04/19 02:38:53;;;;;;;4.63;0.97;;;;;;;-2.94;70.61;95158.00;1795511;80;21425;-70
2022/04/19 02:41:20;;;;;;;1.80;1.33;;;;;;;-3.19;71.24;95151.31;1764677;80;20995;-71
2022/04/19 02:43:48;;;;;;;2.47;1.63;;;;;;;-3.19;70.65;95154.31;1795475;80;20994;-70
2022/04/19 02:46:15;;;;;;;4.53;3.03;;;;;;;-3.25;71.95;95157.62;1790452;80;21512;-70
2022/04/19 02:48:43;;;;;;;10.10;4.50;;;;;;;-3.18;72.08;95154.77;1795422;80;21014;-70
2022/04/19 02:51:10;;;;;;;7.93;3.60;;;;;;;-3.13;72.08;95154.05;1795577;80;21476;-70
2022/04/19 02:53:36;;;;;;;2.73;1.60;;;;;;;-3.05;72.25;95155.53;1795524;80;21026;-70
2022/04/19 02:56:04;;;;;;;3.10;1.87;;;;;;;-3.00;71.64;95152.66;1795640;80;21065;-70
2022/04/19 02:58:32;;;;;;;2.13;1.40;;;;;;;-3.04;71.17;95159.88;1795606;80;21029;-70
2022/04/19 03:00:59;;;;;;;2.13;1.57;;;;;;;-3.11;71.15;95160.55;1795467;80;20959;-70
2022/04/19 03:03:28;;;;;;;3.07;1.77;;;;;;;-3.19;72.42;95160.77;1795569;80;20951;-70
2022/04/19 03:05:57;;;;;;;1.90;1.50;;;;;;;-3.24;72.79;95157.19;1795540;80;20982;-70
2022/04/19 03:08:25;;;;;;;2.03;1.50;;;;;;;-3.24;72.86;95162.35;1795442;80;20989;-70
2022/04/19 03:10:52;;;;;;;3.13;1.20;;;;;;;-3.17;72.28;95166.85;1795404;80;21042;-70
2022/04/19 03:13:18;;;;;;;1.97;1.50;;;;;;;-3.12;71.85;95165.27;1795606;80;20978;-70
2022/04/19 03:15:45;;;;;;;5.07;1.80;;;;;;;-3.20;71.64;95168.03;1795451;80;21050;-70
2022/04/19 03:18:11;;;;;;;2.77;0.87;;;;;;;-3.07;71.96;95169.70;1795563;80;21002;-70
2022/04/19 03:20:38;;;;;;;8.07;2.70;;;;;;;-3.00;71.07;95170.72;1795525;80;21014;-70
2022/04/19 03:28:45;;;;;;;5.00;3.13;;;;;;;-3.09;70.77;95179.53;1795538;80;20983;-71
2022/04/19 03:31:13;;;;;;;10.47;5.40;;;;;;;-3.10;71.26;95181.25;1795436;80;21018;-71
2022/04/19 03:33:40;;;;;;;7.67;3.80;;;;;;;-3.13;71.46;95190.59;1795440;80;21030;-71
2022/04/19 03:36:08;;;;;;;6.80;1.70;;;;;;;-3.09;71.71;95188.14;1795182;80;21527;-71
2022/04/19 03:38:35;;;;;;;2.03;1.57;;;;;;;-3.09;70.82;95188.14;1795472;80;20991;-71
2022/04/19 03:41:05;;;;;;;1.57;1.20;;;;;;;-3.11;70.82;95186.36;1764630;80;21018;-70
2022/04/19 03:43:32;;;;;;;2.27;1.40;;;;;;;-3.10;70.81;95181.25;1795442;80;21025;-71
2022/04/19 03:46:00;;;;;;;4.17;1.63;;;;;;;-3.05;70.79;95191.67;1795534;80;20974;-71
2022/04/19 03:48:27;;;;;;;3.27;1.40;;;;;;;-3.13;70.27;95186.30;1795264;80;21556;-71
2022/04/19 03:50:54;;;;;;;1.60;1.30;;;;;;;-3.17;70.54;95192.66;1795286;80;21030;-71
2022/04/19 03:53:21;;;;;;;6.53;2.43;;;;;;;-3.18;71.16;95187.89;1795472;80;21086;-71
2022/04/19 03:55:47;;;;;;;6.63;3.10;;;;;;;-3.12;71.70;95193.66;1795753;80;21002;-71
2022/04/19 03:58:14;;;;;;;2.37;1.57;;;;;;;-3.07;71.64;95192.94;1795527;80;21055;-71
2022/04/19 04:00:41;;;;;;;2.77;1.60;;;;;;;-3.13;70.79;95195.76;1795542;80;20982;-71
2022/04/19 04:03:08;;;;;;;1.43;1.23;;;;;;;-3.05;71.34;95191.28;1763901;80;21525;-70
2022/04/19 04:05:34;;;;;;;2.13;1.73;;;;;;;-2.94;71.26;95188.97;1795654;80;20995;-71
2022/04/19 04:08:01;;;;;;;18.30;8.93;;;;;;;-2.84;71.60;95191.38;1795104;80;21118;-70
2022/04/19 04:10:30;;;;;;;46.43;21.60;;;;;;;-2.75;72.23;95191.59;1794629;80;21011;-70
2022/04/19 04:12:58;;;;;;;38.43;19.37;;;;;;;-2.68;71.76;95193.93;1795154;80;21103;-70
2022/04/19 04:15:25;;;;;;;28.20;15.20;;;;;;;-2.52;71.39;95188.33;1795484;80;21006;-70
2022/04/19 04:17:52;;;;;;;32.97;16.97;;;;;;;-2.41;71.77;95180.83;1795167;80;21085;-70
2022/04/19 04:20:19;;;;;;;36.27;21.33;;;;;;;-2.29;71.75;95191.89;1795361;80;21083;-71
2022/04/19 04:22:45;;;;;;;18.10;7.97;;;;;;;-2.09;71.22;95186.77;1790425;80;20998;-70
2022/04/19 04:25:13;;;;;;;14.33;7.00;;;;;;;-1.94;70.76;95187.94;1795420;80;21015;-70
2022/04/19 04:27:39;;;;;;;11.87;7.23;;;;;;;-1.82;70.48;95186.92;1795460;80;20999;-71
2022/04/19 04:30:08;;;;;;;16.43;8.20;;;;;;;-1.75;70.49;95183.20;1795481;80;21035;-71
2022/04/19 04:32:36;;;;;;;14.97;8.37;;;;;;;-1.66;70.39;95185.53;1794710;80;21014;-71
2022/04/19 04:35:04;;;;;;;17.23;7.80;;;;;;;-1.59;71.03;95188.70;1795453;80;21500;-71
2022/04/19 04:37:31;;;;;;;18.50;8.10;;;;;;;-1.58;71.06;95183.58;1795488;80;21496;-71
2022/04/19 04:39:59;;;;;;;27.13;11.03;;;;;;;-1.47;70.87;95183.79;1795298;80;21010;-71
2022/04/19 04:42:26;;;;;;;20.70;8.93;;;;;;;-1.37;71.19;95176.66;1795119;80;21083;-70
2022/04/19 04:44:54;;;;;;;19.73;9.00;;;;;;;-1.29;70.95;95185.02;1795201;80;21014;-71
2022/04/19 04:50:09;;;;;;;22.13;10.03;;;;;;;-1.15;70.21;95177.11;1795448;80;21003;-71
2022/04/19 04:52:36;;;;;;;31.90;10.87;;;;;;;-1.15;70.40;95179.27;1795294;80;20999;-71
2022/04/19 04:55:05;;;;;;;23.87;10.17;;;;;;;-0.99;70.39;95172.66;1795521;80;21489;-71
2022/04/19 04:57:33;;;;;;;26.17;10.00;;;;;;;-0.90;70.20;95179.31;1795721;80;20982;-71
2022/04/19 05:00:00;;;;;;;24.30;9.90;;;;;;;-0.87;70.32;95173.31;1795371;80;20982;-71
2022/04/19 05:02:27;;;;;;;24.17;9.80;;;;;;;-0.80;70.20;95173.02;1795668;80;20988;-71
2022/04/19 05:04:54;;;;;;;21.53;11.10;;;;;;;-0.71;70.15;95181.80;1795074;80;21019;-71
2022/04/19 05:07:21;;;;;;;25.23;10.83;;;;;;;-0.63;69.67;95177.18;1795472;80;20978;-71
2022/04/19 05:09:49;;;;;;;29.17;10.63;;;;;;;-0.44;69.83;95171.05;1792895;80;20995;-71
2022/04/19 05:12:16;;;;;;;19.20;10.37;;;;;;;-0.31;70.02;95169.52;1786961;80;21035;-71
2022/04/19 05:14:42;;;;;;;31.67;12.23;;;;;;;-0.21;69.70;95173.14;1787054;80;21517;-71
2022/04/19 05:17:10;;;;;;;24.07;11.13;;;;;;;-0.07;69.36;95172.94;1787151;80;21006;-71
2022/04/19 05:19:38;;;;;;;27.57;11.57;;;;;;;0.03;69.04;95168.77;1786365;80;21027;-71
2022/04/19 05:22:05;;;;;;;22.30;9.63;;;;;;;0.11;68.36;95161.96;1786623;80;21049;-70
2022/04/19 05:24:32;;;;;;;17.83;8.53;;;;;;;0.24;68.47;95163.44;1787116;80;21046;-70
2022/04/19 05:26:59;;;;;;;16.60;8.13;;;;;;;0.38;68.17;95160.62;1787142;80;20999;-71
2022/04/19 05:29:25;;;;;;;17.13;8.53;;;;;;;0.57;67.72;95169.50;1786894;80;21047;-70
2022/04/19 05:31:52;;;;;;;16.20;6.93;;;;;;;0.71;66.92;95169.26;1786737;80;21041;-71
2022/04/19 05:34:19;;;;;;;13.93;7.30;;;;;;;0.82;66.28;95173.27;1786959;80;21030;-70
2022/04/19 05:36:45;;;;;;;14.53;6.67;;;;;;;0.93;66.37;95170.36;1787136;80;21075;-70
2022/04/19 05:39:13;;;;;;;12.47;6.40;;;;;;;1.08;66.05;95164.47;1786955;80;21493;-70
2022/04/19 05:41:40;;;;;;;8.90;5.70;;;;;;;1.28;65.94;95168.58;1787039;80;20971;-69
2022/04/19 05:44:08;;;;;;;16.43;5.70;;;;;;;1.47;64.48;95161.84;1786974;80;21505;-70
2022/04/19 05:46:36;;;;;;;14.43;6.27;;;;;;;1.63;64.23;95162.84;1787017;80;21512;-70
2022/04/19 05:49:06;;;;;;;15.27;7.30;;;;;;;1.80;64.44;95159.96;1786863;80;21019;-70
2022/04/19 05:51:35;;;;;;;13.13;7.40;;;;;;;2.04;64.51;95155.80;1787107;80;21449;-70
2022/04/19 05:54:02;;;;;;;15.50;7.30;;;;;;;2.21;64.38;95158.52;1787022;80;20967;-70
2022/04/19 05:56:30;;;;;;;14.37;6.47;;;;;;;2.35;63.82;95155.58;1787162;80;21018;-71
2022/04/19 05:58:57;;;;;;;12.63;5.93;;;;;;;2.45;62.84;95150.86;1787175;80;20970;-71
2022/04/19 06:01:24;;;;;;;11.73;5.00;;;;;;;2.62;63.19;95154.87;1786952;80;21018;-71
2022/04/19 06:06:39;;;;;;;8.53;4.70;;;;;;;2.84;61.44;95153.64;1786994;80;21023;-70
2022/04/19 06:09:06;;;;;;;8.53;4.77;;;;;;;3.01;60.87;95148.06;1786999;80;20971;-70
2022/04/19 06:11:32;;;;;;;7.17;4.57;;;;;;;3.20;60.90;95158.09;1794495;80;21062;-70
2022/04/19 06:13:59;;;;;;;4.93;3.80;;;;;;;3.35;59.80;95151.64;1795093;80;21082;-70
2022/04/19 06:16:26;;;;;;;5.97;3.27;;;;;;;3.53;57.36;95155.13;1764451;80;21038;-70
2022/04/19 06:18:54;;;;;;;8.50;3.13;;;;;;;3.66;56.13;95143.41;1764374;80;21468;-71
2022/04/19 06:21:22;;;;;;;7.57;3.67;;;;;;;3.82;56.94;95145.59;1795548;80;21078;-70
2022/04/19 06:23:49;;;;;;;9.33;3.73;;;;;;;4.03;55.58;95143.43;1795491;80;21042;-70
2022/04/19 06:26:15;;;;;;;8.80;4.27;;;;;;;4.18;54.45;95141.66;1795440;80;21014;-70
2022/04/19 06:28:42;;;;;;;7.37;4.20;;;;;;;4.41;55.85;95142.91;1795215;80;21526;-70
2022/04/19 06:31:16;;;;;;;6.10;3.30;;;;;;;4.67;56.32;95130.66;1792366;80;20983;-70
2022/04/19 06:33:45;;;;;;;5.77;2.30;;;;;;;5.02;55.89;95134.89;1795250;80;21093;-70
2022/04/19 06:36:11;;;;;;;6.50;2.60;;;;;;;5.25;48.38;95133.46;1764427;80;21507;-69
2022/04/19 06:38:38;;;;;;;5.00;2.67;;;;;;;5.44;50.65;95130.28;1795469;80;21006;-70
2022/04/19 06:41:04;;;;;;;2.10;1.60;;;;;;;5.63;49.68;95125.81;1795520;80;21010;-70
2022/04/19 06:43:32;;;;;;;2.73;2.10;;;;;;;5.51;44.07;95136.36;1795691;80;21003;-70
2022/04/19 06:46:03;;;;;;;1.73;1.53;;;;;;;5.53;44.28;95137.22;1793495;80;20975;-70
2022/04/19 06:48:34;;;;;;;2.23;1.70;;;;;;;5.38;41.97;95139.05;1795172;80;21129;-70
2022/04/19 06:51:01;;;;;;;3.70;2.80;;;;;;;5.42;42.48;95138.16;1795508;80;21461;-69
2022/04/19 06:53:30;;;;;;;4.53;2.80;;;;;;;5.53;44.08;95136.78;1795196;80;21025;-69
2022/04/19 06:56:06;;;;;;;5.30;3.27;;;;;;;5.68;45.32;95134.95;1794197;80;21010;-71
2022/04/19 06:58:33;;;;;;;5.60;2.97;;;;;;;5.81;44.58;95143.13;1764390;80;20979;-70
2022/04/19 07:01:00;;;;;;;4.67;2.67;;;;;;;5.93;43.64;95138.25;1795477;80;20987;-71
2022/04/19 07:03:27;;;;;;;7.23;2.60;;;;;;;6.11;44.82;95136.81;1795728;80;21042;-70
2022/04/19 07:06:04;;;;;;;9.47;4.73;;;;;;;6.38;44.40;95137.01;1795331;80;20987;-70
2022/04/19 07:08:31;;;;;;;2.70;2.33;;;;;;;6.64;44.78;95137.17;1795170;80;21018;-70
2022/04/19 07:11:00;;;;;;;2.60;2.10;;;;;;;6.77;40.31;95134.84;1795348;80;21485;-70
2022/04/19 07:13:37;;;;;;;2.33;1.80;;;;;;;6.83;41.25;95133.47;1793241;80;21018;-69
2022/04/19 07:16:08;;;;;;;2.63;1.87;;;;;;;6.88;40.09;95118.55;1795415;80;21021;-70
2022/04/19 07:18:35;;;;;;;2.47;2.13;;;;;;;7.01;41.18;95115.78;1795505;80;20979;-70
2022/04/19 07:26:38;;;;;;;6.60;4.60;;;;;;;6.97;39.96;95118.88;1795108;80;21152;-70
2022/04/19 07:29:10;;;;;;;3.43;2.67;;;;;;;6.99;38.16;95124.11;1795660;80;20983;-70
2022/04/19 07:31:42;;;;;;;2.70;2.00;;;;;;;7.03;38.96;95125.79;1764472;80;21532;-70
2022/04/19 07:34:11;;;;;;;;;;;;;;;7.20;37.83;95113.77;1797923;80;21069;-70
2022/04/19 07:36:39;;;;;;;7.13;3.90;;;;;;;6.91;37.58;95119.82;1763862;81;20443;-71
2022/04/19 07:39:10;;;;;;;2.33;1.93;;;;;;;6.83;37.74;95122.98;1795414;80;21038;-71
2022/04/19 07:41:47;;;;;;;3.17;1.60;;;;;;;6.80;38.55;95133.94;1795538;80;20999;-71
2022/04/19 07:44:15;;;;;;;1.87;1.70;;;;;;;6.65;37.77;95130.63;1795398;80;21002;-71
2022/04/19 07:46:42;;;;;;;3.13;2.33;;;;;;;6.66;37.77;95131.48;1795627;80;21105;-71
2022/04/19 07:49:10;;;;;;;2.60;1.90;;;;;;;6.73;38.46;95129.22;1795293;80;21465;-70
2022/04/19 07:51:37;;;;;;;2.80;1.53;;;;;;;6.81;38.99;95130.00;1795670;80;20982;-70
2022/04/19 07:54:04;;;;;;;2.00;1.67;;;;;;;6.82;38.29;95124.30;1795430;80;21006;-69
2022/04/19 07:56:31;;;;;;;5.37;2.00;;;;;;;6.93;38.12;95129.00;1795381;80;21042;-70
2022/04/19 07:58:58;;;;;;;3.30;1.43;;;;;;;6.99;38.79;95129.36;1795538;80;21006;-70
2022/04/19 08:01:26;;;;;;;3.37;1.80;;;;;;;7.08;37.76;95128.80;1795639;80;20990;-70
2022/04/19 08:03:53;;;;;;;2.47;1.77;;;;;;;6.98;37.24;95130.22;1795239;80;21017;-70
2022/04/19 08:06:20;;;;;;;2.30;2.10;;;;;;;7.04;37.80;95124.92;1795330;80;20987;-68
2022/04/19 08:08:46;;;;;;;3.63;2.27;;;;;;;7.09;38.14;95117.86;1795347;80;21034;-68
2022/04/19 08:11:13;;;;;;;2.53;1.77;;;;;;;7.08;39.49;95123.55;1790787;80;21126;-68
2022/04/19 08:13:40;;;;;;;3.23;2.40;;;;;;;7.23;38.66;95128.16;1786825;80;21021;-68
2022/04/19 08:16:08;;;;;;;2.53;1.97;;;;;;;7.22;39.12;95129.92;1787150;80;21513;-68
2022/04/19 08:18:35;;;;;;;2.40;1.80;;;;;;;7.18;37.20;95129.98;1786825;80;21010;-69
2022/04/19 08:21:02;;;;;;;3.63;2.20;;;;;;;7.31;39.63;95120.63;1786754;80;21395;-69
2022/04/19 08:23:30;;;;;;;3.00;1.90;;;;;;;7.47;39.47;95120.41;1786971;80;21034;-69
2022/04/19 08:25:59;;;;;;;2.87;2.03;;;;;;;7.52;38.63;95118.59;1786646;80;21027;-68
2022/04/19 08:28:27;;;;;;;5.87;3.90;;;;;;;7.53;38.22;95109.81;1753876;80;21118;-68
2022/04/19 08:30:54;;;;;;;5.17;2.53;;;;;;;7.71;39.14;95109.56;1787121;80;21579;-69
2022/04/19 08:33:22;;;;;;;6.53;3.10;;;;;;;7.80;38.85;95114.64;1786539;80;21023;-68
2022/04/19 08:35:49;;;;;;;5.97;4.47;;;;;;;7.91;39.47;95118.86;1786810;80;21026;-68
2022/04/19 08:38:16;;;;;;;5.67;3.30;;;;;;;7.92;37.60;95114.91;1787024;80;20992;-68
2022/04/19 08:40:43;;;;;;;5.90;4.27;;;;;;;7.90;37.45;95117.14;1786765;80;21003;-67
2022/04/19 08:43:11;;;;;;;6.40;3.50;;;;;;;7.84;37.36;95110.23;1787151;80;21496;-68
2022/04/19 08:45:38;;;;;;;5.17;3.50;;;;;;;7.86;37.62;95115.02;1786920;80;21007;-68
2022/04/19 08:48:09;;;;;;;4.23;3.30;;;;;;;7.81;37.09;95112.88;1787016;80;21007;-68
2022/04/19 08:50:38;;;;;;;6.97;3.10;;;;;;;7.82;37.02;95113.33;1786973;80;20975;-68
2022/04/19 08:58:36;;;;;;;4.00;2.80;;;;;;;7.98;37.93;95112.17;1787353;80;21409;-68
2022/04/19 09:01:03;;;;;;;8.03;4.40;;;;;;;8.20;38.26;95111.38;1787069;80;21070;-68
2022/04/19 09:03:30;;;;;;;3.10;2.30;;;;;;;8.49;37.28;95100.81;1787032;80;21049;-68
2022/04/19 09:05:57;;;;;;;4.47;2.30;;;;;;;8.62;37.02;95106.73;1786698;80;20995;-68
2022/04/19 09:08:23;;;;;;;4.93;3.27;;;;;;;8.54;38.10;95097.68;1787033;80;21126;-68
2022/04/19 09:10:52;;;;;;;3.37;2.57;;;;;;;8.45;36.76;95105.72;1788868;80;21003;-68
2022/04/19 09:13:21;;;;;;;3.90;3.13;;;;;;;8.38;38.40;95110.63;1766299;80;21006;-68
2022/04/19 09:15:49;;;;;;;3.60;2.87;;;;;;;8.60;36.69;95100.63;1795359;80;21030;-68
2022/04/19 09:18:33;;;;;;;5.60;2.40;;;;;;;8.75;36.04;95098.16;1795341;80;21006;-68
2022/04/19 09:21:01;;;;;;;;;;;;;;;8.82;35.30;95090.54;1797887;80;20979;-68
2022/04/19 09:23:30;;;;;;;9.70;7.80;;;;;;;9.01;37.42;95080.07;1764302;81;20102;-68
2022/04/19 09:26:00;;;;;;;9.20;6.87;;;;;;;9.28;36.78;95081.72;1795133;80;21017;-67
2022/04/19 09:28:28;;;;;;;7.30;5.30;;;;;;;9.15;35.60;95092.06;1795454;80;21010;-67
2022/04/19 09:30:58;;;;;;;3.17;2.67;;;;;;;8.79;35.36;95094.10;1795473;80;21014;-67
2022/04/19 09:33:30;;;;;;;4.00;2.87;;;;;;;8.67;35.29;95091.73;1795386;80;21006;-67
2022/04/19 09:35:59;;;;;;;9.17;7.53;;;;;;;8.52;35.71;95090.72;1795135;80;21568;-67
2022/04/19 09:38:42;;;;;;;2.50;2.00;;;;;;;8.48;36.57;95100.41;1795476;80;21002;-67
2022/04/19 09:41:31;;;;;;;6.35;3.80;;;;;;;8.84;38.67;95085.70;1795514;80;20999;-67
2022/04/19 09:44:12;;;;;;;3.33;2.47;;;;;;;9.23;34.99;95089.70;1795467;80;21006;-68
2022/04/19 09:46:41;;;;;;;2.23;2.00;;;;;;;9.05;34.95;95100.17;1795396;80;21046;-68
2022/04/19 09:49:08;;;;;;;2.30;1.80;;;;;;;9.04;33.97;95085.27;1795199;80;21485;-68
2022/04/19 09:51:36;;;;;;;4.00;2.30;;;;;;;9.27;34.38;95078.64;1795015;80;20999;-68
2022/04/19 09:54:04;;;;;;;3.47;2.20;;;;;;;9.61;35.97;95085.81;1795338;80;21080;-68
2022/04/19 09:56:36;;;;;;;3.50;2.63;;;;;;;9.65;34.52;95083.50;1795250;80;21033;-68
2022/04/19 09:59:03;;;;;;;2.83;2.27;;;;;;;9.45;33.62;95086.16;1795502;80;21022;-68
2022/04/19 10:09:38;;;;;;;3.90;2.57;;;;;;;9.35;35.95;95085.95;1795371;80;21033;-67
2022/04/19 10:12:07;;;;;;;4.23;2.60;;;;;;;9.29;33.96;95091.33;1790200;80;21054;-67
2022/04/19 10:14:35;;;;;;;2.80;2.10;;;;;;;9.33;34.72;95090.38;1787396;80;21026;-67
2022/04/19 10:17:04;;;;;;;4.37;3.80;;;;;;;9.17;36.76;95090.27;1787098;80;21357;-68
2022/04/19 10:19:32;;;;;;;2.50;2.10;;;;;;;9.08;35.02;95101.88;1787484;80;21026;-67
2022/04/19 10:22:08;;;;;;;2.80;1.60;;;;;;;8.76;35.33;95106.00;1786738;80;21015;-67
2022/04/19 10:24:51;;;;;;;5.47;3.30;;;;;;;8.80;35.48;95106.83;1787299;80;20991;-68
2022/04/19 10:27:16;;;;;;;3.40;2.17;;;;;;;8.84;36.48;95109.38;1786716;80;21015;-68
2022/04/19 10:29:46;;;;;;;2.37;1.77;;;;;;;8.88;36.72;95095.70;1786920;80;20979;-68
2022/04/19 10:32:13;;;;;;;1.60;1.40;;;;;;;8.86;34.92;95101.44;1786923;80;21142;-68
2022/04/19 10:34:41;;;;;;;2.53;1.83;;;;;;;8.93;35.71;95091.21;1787348;80;21481;-68
2022/04/19 10:37:24;;;;;;;3.97;2.10;;;;;;;9.00;36.39;95087.56;1786950;80;21007;-68
2022/04/19 10:39:54;;;;;;;2.90;2.20;;;;;;;9.29;36.47;95088.24;1785172;80;21473;-68
2022/04/19 10:42:40;;;;;;;;;;;;;;;9.69;36.59;95096.57;1789508;80;21054;-68
2022/04/19 10:45:18;;;;;;;2.40;1.90;;;;;;;9.80;34.45;95092.36;1756038;81;20122;-67
2022/04/19 10:47:57;;;;;;;2.43;2.03;;;;;;;9.99;36.43;95083.58;1787019;80;21544;-68
2022/04/19 10:50:34;;;;;;;3.53;1.60;;;;;;;10.24;36.38;95081.66;1786838;80;21086;-67
2022/04/19 10:53:05;;;;;;;3.10;1.80;;;;;;;10.27;32.99;95082.89;1787386;80;20999;-67
2022/04/19 10:55:34;;;;;;;1.57;1.47;;;;;;;10.28;34.62;95082.89;1786360;80;20983;-66
2022/04/19 10:58:29;;;;;;;3.10;1.83;;;;;;;10.00;32.30;95084.44;1787245;80;21014;-67
2022/04/19 11:00:51;;;;;;;1.50;1.40;;;;;;;10.08;32.23;95079.83;1780961;80;20995;-67
2022/04/19 11:03:47;;;;;;;2.40;1.47;;;;;;;10.50;35.45;95071.77;1787155;80;20983;-67
2022/04/19 11:06:40;;;;;;;1.70;1.40;;;;;;;11.21;35.49;95061.41;1787161;80;21027;-67
2022/04/19 11:09:25;;;;;;;3.87;2.25;;;;;;;11.83;34.64;95058.61;1787418;80;21015;-67
2022/04/19 11:11:58;;;;;;;4.25;2.98;;;;;;;11.76;30.16;95067.65;1789908;80;21026;-67
2022/04/19 11:14:36;;;;;;;2.70;2.08;;;;;;;11.12;29.65;95060.38;1790656;80;21039;-67
2022/04/19 11:17:24;;;;;;;3.58;2.02;;;;;;;10.85;32.44;95066.84;1795493;80;21017;-68
2022/04/19 11:20:14;;;;;;;3.83;2.03;;;;;;;10.72;32.18;95070.28;1795376;80;21002;-68
2022/04/19 11:22:49;;;;;;;2.70;2.05;;;;;;;10.56;31.43;95076.44;1788740;80;21105;-67
2022/04/19 11:25:36;;;;;;;1.77;1.60;;;;;;;10.28;31.18;95073.66;1788513;80;21584;-68
2022/04/19 11:28:09;;;;;;;3.40;2.10;;;;;;;10.21;31.27;95080.42;1795470;80;21057;-67
2022/04/19 11:30:36;;;;;;;4.45;2.37;;;;;;;10.09;32.05;95078.95;1795749;80;20982;-67
2022/04/19 11:33:05;;;;;;;4.07;2.40;;;;;;;9.99;33.61;95077.45;1795197;80;21001;-67
2022/04/19 11:35:32;;;;;;;2.40;2.03;;;;;;;9.62;34.06;95082.27;1795458;80;21449;-66
2022/04/19 11:38:08;;;;;;;7.40;3.60;;;;;;;9.28;34.72;95090.47;1795402;80;20959;-67
2022/04/19 11:49:09;;;;;;;3.87;3.00;;;;;;;8.85;35.50;95082.16;1795517;80;21516;-67
2022/04/19 11:51:37;;;;;;;4.03;3.47;;;;;;;8.76;35.72;95094.16;1795512;80;20983;-68
2022/04/19 11:54:06;;;;;;;5.03;2.60;;;;;;;8.76;36.13;95087.59;1795217;80;20999;-68
2022/04/19 11:56:32;;;;;;;3.63;2.83;;;;;;;8.74;35.74;95091.15;1795447;80;21026;-68
2022/04/19 11:59:01;;;;;;;3.70;3.23;;;;;;;8.84;36.88;95080.86;1795581;80;21011;-68
2022/04/19 12:01:28;;;;;;;4.30;2.77;;;;;;;8.99;34.89;95088.44;1795515;80;21057;-68
2022/04/19 12:03:55;;;;;;;4.00;2.30;;;;;;;9.34;34.25;95075.44;1795507;80;21519;-68
2022/04/19 12:06:23;;;;;;;3.07;2.30;;;;;;;10.12;33.03;95065.69;1795357;80;21038;-68
2022/04/19 12:08:53;;;;;;;4.57;2.60;;;;;;;10.53;30.93;95069.93;1795412;80;20994;-67
2022/04/19 12:11:29;;;;;;;5.90;2.30;;;;;;;10.72;31.03;95066.78;1795306;80;20971;-67
2022/04/19 12:13:56;;;;;;;3.33;2.40;;;;;;;10.81;33.24;95056.84;1795391;80;20990;-68
2022/04/19 12:16:36;;;;;;;9.58;2.42;;;;;;;11.48;32.50;95051.80;1795372;80;20994;-67
2022/04/19 12:19:09;;;;;;;2.85;1.82;;;;;;;12.39;32.42;95047.09;1795422;80;21006;-67
2022/04/19 12:21:42;;;;;;;2.15;1.77;;;;;;;12.95;29.12;95031.44;1795006;80;21027;-67
2022/04/19 12:24:28;;;;;;;3.70;2.30;;;;;;;13.47;29.97;95035.27;1764517;80;21469;-67
2022/04/19 12:27:07;;;;;;;1.85;1.67;;;;;;;13.52;28.29;95043.44;1795426;80;20967;-67